Time;durP1;ratioP1;P1;durP2;ratioP2;P2;SDS_P1;SDS_P2;PMS_P1;PMS_P2;Temp;Humidity;BMP_temperature;BMP_pressure;BME280_temperature;BME280_humidity;BME280_pressure;Samples;Min_cycle;Max_cycle;Signal;HPM_P1;HPM_P2
2022/06/18 06:47:46;;;;;;;;;;;;;;;19.80;59.43;100594.75;6279225;22;1920;-92
2022/06/18 06:50:13;;;;;;;;;;;;;;;19.86;59.90;100600.91;6252768;22;1289;-91
2022/06/18 06:52:43;;;;;;;;;;;;;;;19.91;59.74;100601.50;6252629;22;1268;-92
2022/06/18 06:58:03;;;;;;;;;;;;;;;20.06;60.29;100594.53;6280014;22;596;-91
2022/06/18 07:00:29;;;;;;;;;;;;;;;20.07;60.20;100589.78;6252574;22;1301;-91
2022/06/18 07:02:54;;;;;;;;;;;;;;;20.18;60.09;100582.63;6252900;22;1232;-92
2022/06/18 07:05:24;;;;;;;;;;;;;;;20.23;60.34;100585.19;6252536;22;1203;-92
2022/06/18 07:07:49;;;;;;;;;;;;;;;20.27;60.00;100583.34;6253037;22;1901;-89
2022/06/18 07:10:15;;;;;;;;;;;;;;;20.36;60.38;100584.09;6253027;22;1284;-90
2022/06/18 07:12:40;;;;;;;;;;;;;;;20.38;59.80;100581.78;6252702;22;1262;-91
2022/06/18 07:15:06;;;;;;;;;;;;;;;20.39;59.96;100583.41;6252883;22;1248;-91
2022/06/18 07:17:31;;;;;;;;;;;;;;;20.43;59.51;100575.19;6253482;22;1131;-91
2022/06/18 07:19:56;;;;;;;;;;;;;;;20.49;60.58;100577.41;6253871;22;1194;-91
2022/06/18 07:22:21;;;;;;;;;;;;;;;20.56;60.34;100574.88;6253776;22;934;-92
2022/06/18 07:24:47;;;;;;;;;;;;;;;20.65;60.59;100575.56;6255061;22;1258;-91
2022/06/18 07:27:13;;;;;;;;;;;;;;;20.71;60.10;100570.59;6256113;22;1912;-92
2022/06/18 07:29:38;;;;;;;;;;;;;;;20.75;60.66;100568.75;6261233;22;1122;-93
2022/06/18 07:32:04;;;;;;;;;;;;;;;20.85;60.06;100568.25;6262202;22;1342;-92
2022/06/18 07:34:30;;;;;;;;;;;;;;;20.95;59.89;100567.00;6259766;22;1084;-91
2022/06/18 07:36:55;;;;;;;;;;;;;;;21.00;60.35;100569.56;6258067;22;1240;-91
2022/06/18 07:39:20;;;;;;;;;;;;;;;21.07;60.34;100556.69;6257857;22;1294;-92
2022/06/18 07:41:52;;;;;;;;;;;;;;;21.19;60.94;100555.03;6258270;22;1192;-91
2022/06/18 07:44:17;;;;;;;;;;;;;;;21.24;60.32;100555.63;6262201;22;1285;-93
2022/06/18 07:46:42;;;;;;;;;;;;;;;21.30;60.58;100553.41;6262322;22;1888;-91
2022/06/18 07:49:07;;;;;;;;;;;;;;;21.36;59.87;100544.47;6263140;22;1043;-91
2022/06/18 07:51:33;;;;;;;;;;;;;;;21.48;60.40;100546.41;6288848;22;1281;-92
2022/06/18 07:53:58;;;;;;;;;;;;;;;21.52;60.75;100541.78;6258169;22;1249;-92
2022/06/18 07:56:23;;;;;;;;;;;;;;;21.64;60.71;100541.72;6259442;22;1202;-92
2022/06/18 07:58:50;;;;;;;;;;;;;;;21.66;59.93;100544.16;6258545;22;1109;-92
2022/06/18 08:01:15;;;;;;;;;;;;;;;21.67;59.28;100535.44;6258309;22;1349;-92
2022/06/18 08:03:45;;;;;;;;;;;;;;;21.77;59.46;100531.34;6256706;22;864;-92
2022/06/18 08:06:11;;;;;;;;;;;;;;;21.78;59.18;100530.97;6256823;22;1074;-92
2022/06/18 08:08:36;;;;;;;;;;;;;;;21.88;59.65;100538.00;6256477;22;1897;-92
2022/06/18 08:11:17;;;;;;;;;;;;;;;21.92;59.03;100516.63;6254380;22;1239;-91
2022/06/18 08:13:43;;;;;;;;;;;;;;;22.01;59.87;100530.44;6254071;22;1398;-91
2022/06/18 08:16:10;;;;;;;;;;;;;;;22.15;58.46;100519.66;6262573;22;1140;-92
2022/06/18 08:18:42;;;;;;;;;;;;;;;22.22;58.44;100522.63;6266897;22;1325;-93
2022/06/18 08:21:36;;;;;;;;;;;;;;;22.25;58.45;100524.72;6269162;22;1226;-93
2022/06/18 08:24:11;;;;;;;;;;;;;;;22.27;58.20;100523.19;6269417;22;1200;-93
2022/06/18 08:26:39;;;;;;;;;;;;;;;22.31;58.93;100516.88;6246641;22;1918;-93
2022/06/18 08:29:05;;;;;;;;;;;;;;;22.45;59.52;100517.28;6263745;22;1297;-92
2022/06/18 08:31:30;;;;;;;;;;;;;;;22.54;57.84;100523.47;6259285;22;1298;-92
2022/06/18 08:33:59;;;;;;;;;;;;;;;22.61;59.20;100515.28;6259376;22;1089;-92
2022/06/18 08:36:24;;;;;;;;;;;;;;;22.67;58.33;100518.59;6258648;22;1130;-92
2022/06/18 08:38:53;;;;;;;;;;;;;;;22.76;57.25;100513.66;6259549;22;1333;-92
2022/06/18 08:41:40;;;;;;;;;;;;;;;22.80;57.09;100515.34;6261369;22;1284;-91
2022/06/18 08:44:25;;;;;;;;;;;;;;;22.90;58.91;100512.03;6257758;22;1198;-92
2022/06/18 08:46:57;;;;;;;;;;;;;;;22.96;56.91;100509.78;6258026;22;1916;-92
2022/06/18 08:49:38;;;;;;;;;;;;;;;23.10;58.58;100500.91;6256766;22;1114;-93
2022/06/18 08:52:23;;;;;;;;;;;;;;;23.21;57.49;100505.56;6259635;22;1374;-91
2022/06/18 08:55:10;;;;;;;;;;;;;;;23.24;58.56;100504.00;6259480;22;1207;-93
2022/06/18 08:57:57;;;;;;;;;;;;;;;23.39;58.41;100503.94;6257768;22;1522;-92
2022/06/18 09:00:39;;;;;;;;;;;;;;;23.48;58.17;100502.94;6258887;22;1188;-93
2022/06/18 09:03:08;;;;;;;;;;;;;;;23.46;57.98;100497.72;6257371;22;1460;-91
2022/06/18 09:05:43;;;;;;;;;;;;;;;23.53;57.22;100491.47;6253097;22;1342;-90
2022/06/18 09:08:33;;;;;;;;;;;;;;;23.54;58.07;100490.31;6257831;22;1901;-92
2022/06/18 09:11:05;;;;;;;;;;;;;;;23.59;57.60;100488.03;6257953;22;1251;-92
2022/06/18 09:13:49;;;;;;;;;;;;;;;23.64;56.07;100487.75;6258581;22;1060;-93
2022/06/18 09:16:18;;;;;;;;;;;;;;;23.99;57.74;100495.97;6255351;22;1132;-92
2022/06/18 09:18:49;;;;;;;;;;;;;;;24.21;56.64;100486.03;6255200;22;1082;-92
2022/06/18 09:21:17;;;;;;;;;;;;;;;24.29;53.38;100472.97;6257369;22;1250;-92
2022/06/18 09:23:51;;;;;;;;;;;;;;;24.52;50.72;100482.97;6258404;22;1171;-93
2022/06/18 09:26:22;;;;;;;;;;;;;;;24.66;51.10;100487.19;6254341;22;1096;-92
2022/06/18 09:28:52;;;;;;;;;;;;;;;24.62;53.29;100483.50;6253255;22;1926;-91
2022/06/18 09:31:21;;;;;;;;;;;;;;;24.88;49.10;100483.53;6253899;22;1327;-92
2022/06/18 09:33:55;;;;;;;;;;;;;;;25.01;51.15;100489.75;6256805;22;1045;-93
2022/06/18 09:36:36;;;;;;;;;;;;;;;24.93;49.54;100480.41;6256778;22;1238;-93
2022/06/18 09:39:06;;;;;;;;;;;;;;;25.02;49.00;100475.34;6257657;22;1237;-92
2022/06/18 09:41:39;;;;;;;;;;;;;;;24.93;50.13;100477.63;6257053;22;1306;-92
2022/06/18 09:44:16;;;;;;;;;;;;;;;25.03;50.51;100484.56;6257499;22;1193;-92
2022/06/18 09:46:47;;;;;;;;;;;;;;;25.17;49.99;100476.38;6260208;22;1924;-91
2022/06/18 09:49:13;;;;;;;;;;;;;;;25.04;51.34;100474.97;6258527;22;1258;-91
2022/06/18 09:51:45;;;;;;;;;;;;;;;25.19;48.69;100477.59;6258468;22;1268;-92
2022/06/18 09:54:12;;;;;;;;;;;;;;;26.09;45.18;100482.28;6260404;22;1362;-92
2022/06/18 09:56:41;;;;;;;;;;;;;;;25.84;49.33;100470.81;6258784;22;1092;-91
2022/06/18 09:59:08;;;;;;;;;;;;;;;25.64;48.73;100467.38;6284664;22;801;-91
2022/06/18 10:01:39;;;;;;;;;;;;;;;25.74;47.00;100474.28;6256426;22;1289;-92
2022/06/18 10:06:55;;;;;;;;;;;;;;;25.89;48.30;100473.25;6284684;22;1921;-91
2022/06/18 10:09:30;;;;;;;;;;;;;;;26.07;44.58;100468.63;6257309;22;1300;-92
2022/06/18 10:11:55;;;;;;;;;;;;;;;26.08;45.66;100475.03;6257472;22;1307;-92
2022/06/18 10:14:21;;;;;;;;;;;;;;;26.10;42.28;100467.06;6284198;22;793;-92
2022/06/18 10:16:53;;;;;;;;;;;;;;;26.22;44.32;100470.38;6284778;22;794;-92
2022/06/18 10:19:37;;;;;;;;;;;;;;;26.30;44.63;100472.06;6256706;22;1100;-91
2022/06/18 10:22:22;;;;;;;;;;;;;;;26.38;45.82;100473.75;6284403;22;1158;-91
2022/06/18 10:24:51;;;;;;;;;;;;;;;26.17;43.60;100462.31;6284551;22;836;-92
2022/06/18 10:27:30;;;;;;;;;;;;;;;26.58;41.84;100473.50;6256987;22;1918;-92
2022/06/18 10:30:01;;;;;;;;;;;;;;;26.48;44.30;100463.81;6258427;22;1326;-92
2022/06/18 10:32:38;;;;;;;;;;;;;;;26.45;44.71;100470.22;6284404;22;805;-92
2022/06/18 10:35:16;;;;;;;;;;;;;;;26.44;44.32;100468.59;6284167;22;807;-92
2022/06/18 10:37:47;;;;;;;;;;;;;;;26.60;44.36;100466.31;6258053;22;1229;-92
2022/06/18 10:40:32;;;;;;;;;;;;;;;26.69;44.61;100463.97;6256569;22;1205;-91
2022/06/18 10:42:57;;;;;;;;;;;;;;;26.70;45.89;100459.16;6205835;22;1226;-90
2022/06/18 10:45:34;;;;;;;;;;;;;;;26.83;44.82;100459.63;6259072;22;1183;-91
2022/06/18 10:48:00;;;;;;;;;;;;;;;26.86;42.46;100445.63;6256722;22;1907;-91
2022/06/18 10:50:25;;;;;;;;;;;;;;;26.96;41.95;100453.34;6256657;22;1294;-92
2022/06/18 10:52:59;;;;;;;;;;;;;;;26.85;45.87;100448.81;6257091;22;1219;-91
2022/06/18 10:55:24;;;;;;;;;;;;;;;26.88;42.22;100448.81;6256763;22;1353;-92
2022/06/18 10:57:49;;;;;;;;;;;;;;;26.98;43.29;100447.31;6257969;22;1066;-91
2022/06/18 11:00:14;;;;;;;;;;;;;;;27.06;41.23;100446.16;6256923;22;1262;-91
2022/06/18 11:02:40;;;;;;;;;;;;;;;27.03;41.69;100442.16;6257048;22;1224;-92
2022/06/18 11:05:18;;;;;;;;;;;;;;;27.06;42.23;100432.09;6255538;22;1338;-92
2022/06/18 11:07:45;;;;;;;;;;;;;;;27.23;38.79;100424.94;6256414;22;1881;-91
2022/06/18 11:10:21;;;;;;;;;;;;;;;27.41;40.58;100432.25;6257208;22;1320;-92
2022/06/18 11:12:51;;;;;;;;;;;;;;;27.50;40.58;100429.06;6256231;22;1350;-92
2022/06/18 11:15:25;;;;;;;;;;;;;;;27.45;40.74;100430.28;6258903;22;1210;-92
2022/06/18 11:17:50;;;;;;;;;;;;;;;27.30;41.19;100428.63;6259700;22;1521;-92
2022/06/18 11:20:23;;;;;;;;;;;;;;;27.32;42.13;100426.19;6258060;22;1321;-91
2022/06/18 11:22:56;;;;;;;;;;;;;;;27.80;39.16;100414.72;6256528;22;1311;-93
2022/06/18 11:25:26;;;;;;;;;;;;;;;27.70;40.75;100429.56;6255428;22;1253;-92
2022/06/18 11:27:55;;;;;;;;;;;;;;;27.66;43.61;100435.19;6285489;22;1920;-91
2022/06/18 11:30:24;;;;;;;;;;;;;;;27.59;41.10;100423.09;6258944;22;1299;-92
2022/06/18 11:32:50;;;;;;;;;;;;;;;27.56;40.78;100421.09;6258725;22;1068;-90
2022/06/18 11:35:18;;;;;;;;;;;;;;;27.56;42.07;100416.25;6282835;22;766;-93
2022/06/18 11:37:54;;;;;;;;;;;;;;;27.65;42.21;100418.69;6257489;22;1190;-92
2022/06/18 11:40:19;;;;;;;;;;;;;;;27.66;42.62;100420.31;6260177;22;1327;-92
2022/06/18 11:43:00;;;;;;;;;;;;;;;27.83;38.39;100416.72;6261175;22;1179;-92
2022/06/18 11:45:25;;;;;;;;;;;;;;;28.04;42.40;100413.16;6261575;22;1174;-92
2022/06/18 11:47:50;;;;;;;;;;;;;;;27.99;41.04;100411.50;6283994;22;1926;-91
2022/06/18 11:50:34;;;;;;;;;;;;;;;27.80;41.54;100412.72;6254197;22;1210;-91
2022/06/18 11:53:05;;;;;;;;;;;;;;;27.76;40.59;100413.91;6278391;22;821;-91
2022/06/18 11:55:34;;;;;;;;;;;;;;;27.91;37.79;100404.28;6251197;22;1295;-92
2022/06/18 11:58:14;;;;;;;;;;;;;;;27.93;39.75;100404.69;6276804;22;850;-92
2022/06/18 12:00:42;;;;;;;;;;;;;;;28.09;38.14;100402.28;6249261;22;1393;-92
2022/06/18 12:03:15;;;;;;;;;;;;;;;28.32;38.94;100399.09;6249696;22;1342;-92
2022/06/18 12:05:46;;;;;;;;;;;;;;;28.26;37.97;100391.44;6251128;22;1394;-91
2022/06/18 12:08:19;;;;;;;;;;;;;;;28.43;38.01;100397.06;6250706;22;1876;-92
2022/06/18 12:11:10;;;;;;;;;;;;;;;28.50;37.31;100393.44;6251852;22;1317;-93
2022/06/18 12:13:38;;;;;;;;;;;;;;;28.63;36.41;100389.00;6278704;22;983;-92
2022/06/18 12:25:56;;;;;;;;;;;;;;;28.73;37.12;100378.91;6278708;22;577;-93
2022/06/18 12:35:18;;;;;;;;;;;;;;;28.97;39.12;100373.22;6278425;22;639;-92
2022/06/18 12:38:07;;;;;;;;;;;;;;;28.93;37.31;100365.97;6248085;22;1277;-93
2022/06/18 12:40:57;;;;;;;;;;;;;;;28.87;38.11;100357.16;6251295;22;1301;-92
2022/06/18 12:43:46;;;;;;;;;;;;;;;29.13;36.21;100355.84;6251131;22;1405;-93
2022/06/18 12:46:31;;;;;;;;;;;;;;;29.32;37.02;100351.72;6251519;22;1338;-92
2022/06/18 12:49:09;;;;;;;;;;;;;;;29.34;37.94;100354.94;6275227;22;1872;-92
2022/06/18 12:51:34;;;;;;;;;;;;;;;29.29;36.63;100346.91;6250969;22;1185;-92
2022/06/18 12:54:10;;;;;;;;;;;;;;;29.27;35.45;100336.03;6250410;22;1271;-92
2022/06/18 12:56:41;;;;;;;;;;;;;;;29.23;36.93;100334.44;6251427;22;1323;-92
2022/06/18 12:59:06;;;;;;;;;;;;;;;29.40;37.47;100333.56;6253452;22;1204;-92
2022/06/18 13:01:50;;;;;;;;;;;;;;;29.48;37.75;100331.50;6278194;22;1203;-92
2022/06/18 13:04:33;;;;;;;;;;;;;;;29.68;35.77;100329.78;6252869;22;1244;-92
2022/06/18 13:07:24;;;;;;;;;;;;;;;29.84;34.44;100323.59;6279186;22;1927;-91
2022/06/18 13:10:13;;;;;;;;;;;;;;;29.83;34.71;100322.78;6273656;22;1306;-91
2022/06/18 13:12:45;;;;;;;;;;;;;;;30.00;34.62;100321.06;6260263;22;1259;-92
2022/06/18 13:15:27;;;;;;;;;;;;;;;30.14;34.84;100314.47;6253541;22;1338;-93
2022/06/18 13:17:55;;;;;;;;;;;;;;;30.18;34.95;100304.75;6254353;22;1370;-92
2022/06/18 13:20:25;;;;;;;;;;;;;;;30.27;35.31;100321.22;6253353;22;1263;-93
2022/06/18 13:22:50;;;;;;;;;;;;;;;30.42;34.91;100309.34;6255135;22;1437;-92
2022/06/18 13:28:16;;;;;;;;;;;;;;;31.00;32.65;100298.16;6280542;22;1944;-92
2022/06/18 13:31:19;;;;;;;;;;;;;;;33.10;31.40;100281.94;6252770;22;1296;-93
2022/06/18 13:34:03;;;;;;;;;;;;;;;35.66;26.68;100290.75;6126330;23;1305;-92
2022/06/18 13:36:36;;;;;;;;;;;;;;;36.49;25.26;100280.19;6103080;23;1343;-92
2022/06/18 13:39:24;;;;;;;;;;;;;;;36.43;23.78;100274.28;6198474;22;1244;-92
2022/06/18 13:41:50;;;;;;;;;;;;;;;37.47;23.40;100274.75;6258343;22;1252;-92
2022/06/18 13:44:23;;;;;;;;;;;;;;;38.07;22.26;100265.72;6252828;22;1311;-92
2022/06/18 13:46:57;;;;;;;;;;;;;;;38.76;22.57;100267.94;6253005;22;1900;-92
2022/06/18 13:49:40;;;;;;;;;;;;;;;38.82;23.72;100268.88;6253247;22;1314;-93
2022/06/18 13:52:06;;;;;;;;;;;;;;;38.88;21.17;100269.78;6252775;22;1365;-91
2022/06/18 13:54:42;;;;;;;;;;;;;;;39.08;21.95;100270.09;6252774;22;1231;-92
2022/06/18 13:57:08;;;;;;;;;;;;;;;39.70;21.21;100267.44;6252500;22;1175;-92
2022/06/18 13:59:34;;;;;;;;;;;;;;;38.34;21.45;100265.75;6252713;22;1276;-92
2022/06/18 14:02:04;;;;;;;;;;;;;;;38.07;22.30;100265.72;6252662;22;1262;-93
2022/06/18 14:04:33;;;;;;;;;;;;;;;39.11;22.54;100265.47;6253269;22;1179;-92
2022/06/18 14:07:00;;;;;;;;;;;;;;;39.82;21.03;100262.75;6252711;22;1926;-94
2022/06/18 14:09:53;;;;;;;;;;;;;;;39.21;21.43;100267.03;6252224;22;1209;-94
2022/06/18 14:12:27;;;;;;;;;;;;;;;39.96;20.79;100255.50;6252198;22;1331;-93
2022/06/18 14:15:15;;;;;;;;;;;;;;;39.32;21.66;100259.50;6252094;22;1421;-92
2022/06/18 14:17:42;;;;;;;;;;;;;;;39.52;21.07;100250.34;6252482;22;1163;-92
2022/06/18 14:20:18;;;;;;;;;;;;;;;38.84;21.77;100261.41;6252525;22;1426;-93
2022/06/18 14:22:43;;;;;;;;;;;;;;;36.98;23.93;100251.84;6252428;22;1326;-94
2022/06/18 14:25:17;;;;;;;;;;;;;;;37.25;25.11;100254.06;6251925;22;1372;-93
2022/06/18 14:27:42;;;;;;;;;;;;;;;36.39;24.79;100250.81;6251996;22;1888;-92
2022/06/18 14:30:18;;;;;;;;;;;;;;;36.88;24.71;100253.84;6251690;22;1195;-92
2022/06/18 14:32:48;;;;;;;;;;;;;;;37.76;24.43;100252.34;6252054;22;1203;-93
2022/06/18 14:35:42;;;;;;;;;;;;;;;36.87;25.84;100246.56;6251860;22;1345;-92
2022/06/18 14:38:31;;;;;;;;;;;;;;;36.96;24.57;100246.59;6251776;22;1321;-93
2022/06/18 14:44:07;;;;;;;;;;;;;;;38.20;22.30;100238.56;6279282;22;640;-94
2022/06/18 14:46:36;;;;;;;;;;;;;;;36.02;25.29;100229.72;6251610;22;1236;-93
2022/06/18 14:49:18;;;;;;;;;;;;;;;34.62;26.93;100228.97;6251920;22;1924;-92
2022/06/18 14:51:55;;;;;;;;;;;;;;;34.56;27.74;100225.06;6251883;22;1258;-93
2022/06/18 14:54:36;;;;;;;;;;;;;;;34.03;29.73;100227.34;6251937;22;1306;-93
2022/06/18 14:57:37;;;;;;;;;;;;;;;33.86;29.50;100220.09;6253850;22;1245;-93
2022/06/18 15:00:18;;;;;;;;;;;;;;;33.63;29.15;100220.28;6251822;22;1251;-93
2022/06/18 15:02:46;;;;;;;;;;;;;;;33.62;29.85;100218.69;6251885;22;1319;-94
2022/06/18 15:05:22;;;;;;;;;;;;;;;33.55;29.31;100216.03;6251345;22;1118;-92
2022/06/18 15:07:48;;;;;;;;;;;;;;;33.77;29.08;100209.38;6251300;22;1884;-92
2022/06/18 15:10:19;;;;;;;;;;;;;;;33.97;28.97;100211.31;6251352;22;1238;-92
2022/06/18 15:12:47;;;;;;;;;;;;;;;34.21;29.13;100206.97;6251485;22;1349;-92
2022/06/18 15:15:27;;;;;;;;;;;;;;;34.45;29.11;100196.19;6278532;22;833;-93
2022/06/18 15:18:18;;;;;;;;;;;;;;;34.90;28.69;100193.97;6251493;22;1389;-93
2022/06/18 15:21:02;;;;;;;;;;;;;;;34.66;29.81;100189.03;6251310;22;1367;-93
2022/06/18 15:23:37;;;;;;;;;;;;;;;34.85;28.55;100188.06;6250401;22;1402;-93
2022/06/18 15:26:09;;;;;;;;;;;;;;;34.73;28.59;100186.81;6251360;22;1324;-93
2022/06/18 15:28:38;;;;;;;;;;;;;;;34.60;28.89;100188.81;6252264;22;1893;-93
2022/06/18 15:31:09;;;;;;;;;;;;;;;34.55;29.93;100180.84;6252106;22;1247;-93
2022/06/18 15:33:44;;;;;;;;;;;;;;;34.60;30.25;100179.50;6251999;22;1222;-93
2022/06/18 15:36:13;;;;;;;;;;;;;;;34.35;30.51;100178.19;6252191;22;1216;-92
2022/06/18 15:38:38;;;;;;;;;;;;;;;34.28;29.19;100169.09;6251072;22;1100;-93
2022/06/18 15:41:11;;;;;;;;;;;;;;;34.33;30.06;100168.53;6251048;22;1273;-91
2022/06/18 15:43:39;;;;;;;;;;;;;;;34.04;28.64;100166.47;6250340;22;1189;-92
2022/06/18 15:46:05;;;;;;;;;;;;;;;34.24;27.97;100174.88;6251060;22;1179;-92
2022/06/18 15:48:37;;;;;;;;;;;;;;;34.60;27.97;100162.44;6249667;22;1926;-92
2022/06/18 15:51:08;;;;;;;;;;;;;;;34.77;27.56;100167.59;6276792;22;1233;-92
2022/06/18 15:53:40;;;;;;;;;;;;;;;34.84;27.06;100167.38;6249324;22;1330;-93
2022/06/18 15:56:08;;;;;;;;;;;;;;;34.50;28.45;100158.66;6248096;22;1343;-93
2022/06/18 15:58:34;;;;;;;;;;;;;;;34.20;29.24;100162.75;6247448;22;1297;-93
2022/06/18 16:00:59;;;;;;;;;;;;;;;34.24;28.49;100166.34;6248022;22;1250;-93
2022/06/18 16:03:26;;;;;;;;;;;;;;;34.09;28.91;100168.78;6247201;22;1200;-91
2022/06/18 16:05:52;;;;;;;;;;;;;;;33.61;29.53;100166.00;6248340;22;1340;-93
2022/06/18 16:08:36;;;;;;;;;;;;;;;33.57;29.47;100162.47;6247965;22;1928;-92
2022/06/18 16:11:20;;;;;;;;;;;;;;;33.78;28.37;100167.59;6276384;22;1282;-92
2022/06/18 16:13:46;;;;;;;;;;;;;;;34.19;28.42;100166.88;6249403;22;1385;-93
2022/06/18 16:16:19;;;;;;;;;;;;;;;33.86;28.36;100163.31;6249669;22;1207;-93
2022/06/18 16:18:45;;;;;;;;;;;;;;;33.71;28.07;100160.06;6249602;22;1213;-92
2022/06/18 16:21:10;;;;;;;;;;;;;;;33.90;28.36;100155.50;6249799;22;1306;-93
2022/06/18 16:23:37;;;;;;;;;;;;;;;33.77;29.27;100161.13;6249302;22;1371;-92
2022/06/18 16:26:03;;;;;;;;;;;;;;;33.65;29.49;100161.84;6250220;22;1300;-93
2022/06/18 16:28:35;;;;;;;;;;;;;;;33.86;28.96;100151.97;6276868;22;1920;-93
2022/06/18 16:31:13;;;;;;;;;;;;;;;33.96;29.71;100150.88;6249872;22;1269;-93
2022/06/18 16:33:40;;;;;;;;;;;;;;;33.95;28.87;100143.59;6276235;22;813;-92
2022/06/18 16:36:08;;;;;;;;;;;;;;;33.98;29.14;100145.53;6249680;22;1319;-93
2022/06/18 16:38:35;;;;;;;;;;;;;;;33.99;30.11;100146.34;6249495;22;1219;-92
2022/06/18 16:41:15;;;;;;;;;;;;;;;34.00;29.65;100156.47;6249619;22;1344;-93
2022/06/18 16:43:43;;;;;;;;;;;;;;;34.05;29.41;100142.50;6276647;22;849;-93
2022/06/18 16:46:20;;;;;;;;;;;;;;;34.07;30.65;100142.06;6249756;22;1108;-93
2022/06/18 16:48:55;;;;;;;;;;;;;;;34.41;29.23;100136.59;6207005;22;1007182;-93
2022/06/18 16:51:33;;;;;;;;;;;;;;;34.17;29.62;100135.28;6250708;22;1319;-91
2022/06/18 16:54:02;;;;;;;;;;;;;;;34.07;29.61;100133.53;6250412;22;1295;-93
2022/06/18 16:56:28;;;;;;;;;;;;;;;34.16;28.99;100139.34;6250704;22;1370;-92
2022/06/18 16:58:53;;;;;;;;;;;;;;;34.08;29.67;100126.59;6277799;22;796;-93
2022/06/18 17:01:18;;;;;;;;;;;;;;;33.97;29.63;100138.28;6250496;22;1263;-92
2022/06/18 17:03:43;;;;;;;;;;;;;;;34.07;29.84;100136.38;6249754;22;1301;-93
2022/06/18 17:06:10;;;;;;;;;;;;;;;34.08;30.17;100129.44;6277783;22;1012;-92
2022/06/18 17:08:35;;;;;;;;;;;;;;;34.07;30.46;100131.50;6250767;22;1911;-92
2022/06/18 17:11:01;;;;;;;;;;;;;;;34.04;30.46;100137.25;6250460;22;1353;-91
2022/06/18 17:13:27;;;;;;;;;;;;;;;33.92;31.00;100138.81;6250788;22;1167;-92
2022/06/18 17:15:53;;;;;;;;;;;;;;;33.50;30.92;100123.75;6250677;22;1190;-92
2022/06/18 17:18:18;;;;;;;;;;;;;;;33.83;32.36;100135.84;6277490;22;845;-93
2022/06/18 17:20:45;;;;;;;;;;;;;;;34.12;31.52;100133.75;6250703;22;1226;-92
2022/06/18 17:23:11;;;;;;;;;;;;;;;34.06;30.67;100132.72;6277882;22;762;-92
2022/06/18 17:31:07;;;;;;;;;;;;;;;33.92;31.52;100130.31;6278090;22;1218;-93
2022/06/18 17:33:33;;;;;;;;;;;;;;;33.58;32.62;100127.97;6250590;22;1454;-92
2022/06/18 17:35:59;;;;;;;;;;;;;;;33.80;33.49;100125.38;6250764;22;1274;-91
2022/06/18 17:38:25;;;;;;;;;;;;;;;33.54;34.04;100118.75;6251247;22;1069;-93
2022/06/18 17:40:51;;;;;;;;;;;;;;;33.47;34.42;100115.31;6250828;22;1377;-93
2022/06/18 17:43:17;;;;;;;;;;;;;;;33.57;35.59;100100.03;6250458;22;1302;-93
2022/06/18 17:45:42;;;;;;;;;;;;;;;33.82;36.95;100105.06;6250451;22;1210;-93
2022/06/18 17:48:13;;;;;;;;;;;;;;;33.35;37.10;100103.44;6250449;22;1892;-93
2022/06/18 17:50:42;;;;;;;;;;;;;;;32.71;39.03;100106.25;6250337;22;1217;-92
2022/06/18 17:53:07;;;;;;;;;;;;;;;32.42;39.38;100101.22;6250405;22;1291;-92
2022/06/18 17:55:32;;;;;;;;;;;;;;;32.71;36.83;100097.75;6250577;22;968;-92
2022/06/18 17:57:57;;;;;;;;;;;;;;;32.70;36.73;100099.78;6250695;22;875;-91
2022/06/18 18:00:22;;;;;;;;;;;;;;;32.88;38.08;100093.69;6251092;22;1139;-92
2022/06/18 18:02:47;;;;;;;;;;;;;;;32.99;37.65;100085.72;6250464;22;1333;-93
2022/06/18 18:05:13;;;;;;;;;;;;;;;32.99;38.99;100091.41;6250048;22;991;-93
2022/06/18 18:07:38;;;;;;;;;;;;;;;32.82;37.32;100087.78;6252026;22;1888;-92
2022/06/18 18:10:04;;;;;;;;;;;;;;;32.49;37.07;100086.91;6252211;22;1218;-92
2022/06/18 18:20:11;;;;;;;;;;;;;;;32.29;36.79;100086.94;6280519;22;607;-92
2022/06/18 18:22:36;;;;;;;;;;;;;;;32.23;36.85;100077.38;6282023;22;1226;-91
2022/06/18 18:25:02;;;;;;;;;;;;;;;32.05;37.78;100087.47;6252001;22;1205;-91
2022/06/18 18:27:27;;;;;;;;;;;;;;;31.82;38.07;100080.63;6251638;22;1952;-91
2022/06/18 18:29:53;;;;;;;;;;;;;;;31.86;38.01;100081.34;6251873;22;1252;-91
2022/06/18 18:32:19;;;;;;;;;;;;;;;31.64;38.41;100083.03;6252008;22;1262;-91
2022/06/18 18:34:44;;;;;;;;;;;;;;;31.69;38.71;100087.38;6252332;22;1169;-92
2022/06/18 18:37:09;;;;;;;;;;;;;;;31.61;38.63;100086.69;6252882;22;1131;-92
2022/06/18 18:39:38;;;;;;;;;;;;;;;31.67;39.56;100084.19;6279935;22;1010;-92
2022/06/18 18:42:04;;;;;;;;;;;;;;;31.78;39.26;100076.28;6252630;22;1175;-92
2022/06/18 18:44:30;;;;;;;;;;;;;;;31.65;40.28;100081.78;6252137;22;1269;-92
2022/06/18 18:46:55;;;;;;;;;;;;;;;31.26;42.68;100084.53;6251883;22;1276;-92
2022/06/18 18:49:20;;;;;;;;;;;;;;;31.05;42.00;100083.63;6278877;22;1912;-92
2022/06/18 18:51:45;;;;;;;;;;;;;;;30.62;43.51;100085.56;6251599;22;1517;-92
2022/06/18 18:54:10;;;;;;;;;;;;;;;30.54;41.43;100082.03;6251508;22;1188;-92
2022/06/18 18:56:35;;;;;;;;;;;;;;;30.78;41.68;100080.88;6251635;22;999;-92
2022/06/18 18:59:02;;;;;;;;;;;;;;;30.76;42.96;100088.97;6278757;22;773;-90
2022/06/18 19:01:27;;;;;;;;;;;;;;;30.42;43.80;100083.38;6251925;22;1393;-91
2022/06/18 19:03:52;;;;;;;;;;;;;;;29.89;45.62;100086.09;6250617;22;1326;-91
2022/06/18 19:06:17;;;;;;;;;;;;;;;29.70;45.91;100079.84;6251580;22;1306;-92
2022/06/18 19:08:42;;;;;;;;;;;;;;;29.17;48.92;100088.84;6278768;22;1877;-91
2022/06/18 19:11:08;;;;;;;;;;;;;;;29.11;48.03;100100.97;6251623;22;1187;-91
2022/06/18 19:13:34;;;;;;;;;;;;;;;29.00;47.86;100095.44;6251694;22;1211;-92
2022/06/18 19:16:01;;;;;;;;;;;;;;;28.89;48.68;100100.34;6251578;22;1233;-91
2022/06/18 19:18:27;;;;;;;;;;;;;;;28.94;49.33;100099.91;6251266;22;1099;-91
2022/06/18 19:20:53;;;;;;;;;;;;;;;28.54;48.41;100098.56;6251542;22;1178;-91
2022/06/18 19:23:19;;;;;;;;;;;;;;;28.63;50.13;100095.28;6250942;22;1227;-92
2022/06/18 19:25:44;;;;;;;;;;;;;;;28.17;52.12;100091.53;6251094;22;1353;-91
2022/06/18 19:28:30;;;;;;;;;;;;;;;28.24;51.17;100082.25;6251359;22;1918;-91
2022/06/18 19:30:57;;;;;;;;;;;;;;;27.89;53.59;100096.44;6276006;22;1213;-92
2022/06/18 19:33:22;;;;;;;;;;;;;;;27.98;53.32;100092.00;6251068;22;1287;-91
2022/06/18 19:35:48;;;;;;;;;;;;;;;28.24;51.86;100088.66;6251650;22;1260;-92
2022/06/18 19:38:13;;;;;;;;;;;;;;;28.11;52.38;100086.69;6251724;22;1177;-91
2022/06/18 19:40:39;;;;;;;;;;;;;;;27.76;54.00;100084.84;6251033;22;1339;-91
2022/06/18 19:43:04;;;;;;;;;;;;;;;27.40;55.08;100084.88;6278301;22;1257;-90
2022/06/18 19:45:30;;;;;;;;;;;;;;;26.89;56.75;100081.69;6251434;22;1310;-92
2022/06/18 19:47:56;;;;;;;;;;;;;;;27.25;55.24;100082.50;6251782;22;1893;-92
2022/06/18 19:50:21;;;;;;;;;;;;;;;27.66;54.13;100080.84;6251636;22;1245;-91
2022/06/18 19:52:47;;;;;;;;;;;;;;;27.65;53.67;100087.66;6251470;22;1302;-91
2022/06/18 19:55:15;;;;;;;;;;;;;;;27.23;54.50;100091.34;6250647;22;1178;-90
2022/06/18 19:57:41;;;;;;;;;;;;;;;27.30;53.00;100094.16;6251410;22;1207;-91
2022/06/18 20:00:07;;;;;;;;;;;;;;;27.01;53.92;100090.56;6278663;22;892;-91
2022/06/18 20:02:33;;;;;;;;;;;;;;;26.72;56.29;100089.69;6251247;22;1195;-91
2022/06/18 20:04:58;;;;;;;;;;;;;;;26.59;56.98;100090.50;6251207;22;1293;-90
2022/06/18 20:07:23;;;;;;;;;;;;;;;26.44;57.36;100094.50;6251013;22;1877;-91
2022/06/18 20:09:48;;;;;;;;;;;;;;;26.42;57.31;100092.06;6251385;22;793;-91
2022/06/18 20:12:16;;;;;;;;;;;;;;;26.36;56.31;100094.47;6251194;22;1285;-91
2022/06/18 20:14:41;;;;;;;;;;;;;;;26.44;56.00;100089.69;6278681;22;1285;-91
2022/06/18 20:17:07;;;;;;;;;;;;;;;26.83;54.12;100084.09;6251302;22;1143;-91
2022/06/18 20:19:32;;;;;;;;;;;;;;;27.30;53.14;100077.31;6278239;22;829;-91
2022/06/18 20:21:57;;;;;;;;;;;;;;;27.05;53.72;100068.88;6251451;22;1167;-91
2022/06/18 20:24:22;;;;;;;;;;;;;;;26.91;53.15;100068.88;6250833;22;1272;-91
2022/06/18 20:26:48;;;;;;;;;;;;;;;26.90;53.22;100066.44;6250810;22;1135;-91
2022/06/18 20:29:13;;;;;;;;;;;;;;;27.31;51.38;100064.03;6250625;22;1932;-91
2022/06/18 20:31:38;;;;;;;;;;;;;;;27.58;50.70;100070.03;6250972;22;1274;-91
2022/06/18 20:34:03;;;;;;;;;;;;;;;27.48;49.67;100061.19;6250780;22;1172;-91